TED STEVENS ANCHORAGE INTL

PANC (ANC)
Anchorage, Alaska
Towered

Vatsim Metar:
PANC 300353Z 03020G31KT 10SM CLR M03/M16 A2978 RMK AO2 PK WND 03034/0255 SLP087 T10281156

No ATC Online

Traffic

Inbound:
Ident
Type
Name
ETA
Phase
CMB523
B752
Devin KCHS
04:46 Z
Cruse
ASA4352
B739/L
Michael Thomas KJFK
06:02 Z
Climb
FDX5230
H/B77L/L
Tristin Albers KPNS
Taxiing Out
AAR2921
H/B744/L
Stephen Bell YPAD
10:16 Z
Descent
KLM867
H/B744/L
Kyle KCLE
Unknown
LHA7W
H/A332/Q
Christian Iber
Unknown

Outbound:
Ident
Type
Name
Destination
Phase